Time;durP1;ratioP1;P1;durP2;ratioP2;P2;SDS_P1;SDS_P2;PMS_P1;PMS_P2;Temp;Humidity;BMP_temperature;BMP_pressure;BME280_temperature;BME280_humidity;BME280_pressure;Samples;Min_cycle;Max_cycle;Signal;HPM_P1;HPM_P2
2024/01/19 00:00:33;;;;;;;18.40;12.53;;;-1.10;88.30;;;-2.17;98.35;97401.78;5059353;28;20452;-77
2024/01/19 00:03:04;;;;;;;22.37;12.20;;;-1.00;89.70;;;-2.49;97.94;97395.97;5052503;28;20481;-72
2024/01/19 00:05:34;;;;;;;17.10;12.40;;;-1.10;88.60;;;-2.56;98.34;97414.22;5047525;28;20477;-76
2024/01/19 00:08:06;;;;;;;19.30;12.27;;;-1.20;88.90;;;-2.42;99.04;97420.00;5047082;28;20456;-69
2024/01/19 00:10:36;;;;;;;19.47;12.30;;;-1.20;89.80;;;-2.65;99.08;97417.78;5059422;28;20554;-72
2024/01/19 00:13:05;;;;;;;16.87;11.87;;;-1.30;89.10;;;-2.60;99.52;97426.09;5050029;28;20452;-69
2024/01/19 00:15:33;;;;;;;21.03;12.73;;;-1.30;89.90;;;-2.62;100.00;97424.56;5051322;28;20435;-71
2024/01/19 00:18:02;;;;;;;17.30;13.00;;;-1.30;90.00;;;-2.63;100.00;97431.69;5050053;28;20466;-73
2024/01/19 00:20:34;;;;;;;17.40;12.13;;;-1.30;90.20;;;-2.51;99.41;97439.41;5038520;28;20461;-73
2024/01/19 00:23:03;;;;;;;16.50;11.80;;;-1.30;90.50;;;-2.64;99.72;97430.03;5046308;28;20474;-71
2024/01/19 00:25:32;;;;;;;21.10;12.50;;;-1.30;90.30;;;-2.60;99.95;97441.97;5059492;28;20454;-73
2024/01/19 00:28:03;;;;;;;23.37;14.27;;;-1.30;90.50;;;-2.57;100.00;97462.84;5032622;28;20527;-74
2024/01/19 00:30:32;;;;;;;21.43;12.23;;;-1.30;90.50;;;-2.45;99.29;97470.59;5038911;28;20464;-75
2024/01/19 00:33:00;;;;;;;20.23;13.93;;;-1.20;90.50;;;-3.06;99.01;97372.28;5033134;28;20463;-72
2024/01/19 00:35:30;;;;;;;21.60;13.33;;;-1.20;90.40;;;-2.54;98.93;97451.13;5048482;28;20466;-74
2024/01/19 00:38:01;;;;;;;19.67;12.80;;;-1.20;90.30;;;-2.52;99.26;97428.00;5025265;28;20533;-73
2024/01/19 00:40:28;;;;;;;19.70;12.97;;;-1.20;90.50;;;-2.31;98.16;97472.75;5064059;28;20879;-73
2024/01/19 00:42:57;;;;;;;23.20;12.57;;;-1.10;90.40;;;-2.18;97.88;97467.09;5046602;28;21027;-72
2024/01/19 00:45:29;;;;;;;19.03;11.70;;;-1.00;90.30;;;-2.25;97.87;97468.69;5035318;28;20538;-73
2024/01/19 00:47:59;;;;;;;19.77;12.47;;;-1.00;90.00;;;-2.36;97.96;97472.34;5036483;28;20477;-74
2024/01/19 00:50:29;;;;;;;22.93;14.43;;;-1.10;89.80;;;-2.31;97.96;97480.69;5046260;28;20446;-73
2024/01/19 00:52:56;;;;;;;22.10;13.93;;;-1.10;89.90;;;-2.30;98.32;97486.81;5040309;28;20450;-75
2024/01/19 00:55:24;;;;;;;20.67;14.47;;;-1.10;89.70;;;-2.37;98.34;97489.19;5037070;28;20490;-71
2024/01/19 00:57:51;;;;;;;22.63;13.73;;;-1.10;89.60;;;-2.43;98.26;97498.59;5038929;28;20538;-75
2024/01/19 01:00:21;;;;;;;21.30;14.73;;;-1.10;89.40;;;-2.23;97.70;97497.63;5036885;28;20562;-75
2024/01/19 01:02:50;;;;;;;22.60;12.97;;;-1.00;90.10;;;-2.32;98.04;97502.84;5051995;28;20909;-73
2024/01/19 01:05:20;;;;;;;24.30;13.40;;;-1.10;89.20;;;-2.44;97.08;97502.19;5063567;28;20455;-73
2024/01/19 01:07:48;;;;;;;20.10;13.93;;;-1.10;89.00;;;-2.50;98.21;97509.88;5064141;28;20448;-73
2024/01/19 01:10:16;;;;;;;18.93;13.97;;;-1.20;89.20;;;-2.43;98.40;97521.56;5052355;28;20442;-71
2024/01/19 01:12:45;;;;;;;22.73;13.57;;;-1.10;89.20;;;-2.44;98.44;97514.59;5036332;28;20481;-76
2024/01/19 01:15:17;;;;;;;21.80;14.30;;;-1.20;89.30;;;-2.48;98.62;97518.50;5046889;28;20458;-74
2024/01/19 01:17:45;;;;;;;23.03;14.37;;;-1.20;89.40;;;-2.47;98.36;97526.28;5044160;28;20963;-73
2024/01/19 01:20:17;;;;;;;21.10;14.30;;;-1.20;89.70;;;-2.60;98.68;97526.63;5040897;28;20450;-73
2024/01/19 01:25:26;;;;;;;23.70;14.60;;;-1.30;89.50;;;-2.52;99.30;97528.53;5048391;28;20458;-74
2024/01/19 01:27:56;;;;;;;20.57;13.70;;;-1.30;90.20;;;-2.57;98.36;97531.63;5061644;28;20628;-75
2024/01/19 01:30:25;;;;;;;22.97;15.13;;;-1.20;90.00;;;-2.54;98.99;97534.94;5054081;28;21308;-74
2024/01/19 01:32:53;;;;;;;26.33;15.37;;;-1.20;89.70;;;-2.53;98.38;97531.31;5033974;28;20455;-74
2024/01/19 01:35:22;;;;;;;22.43;13.10;;;-1.20;89.90;;;-2.44;97.93;97541.06;5028100;28;20488;-72
2024/01/19 01:37:50;;;;;;;22.20;13.93;;;-1.20;89.70;;;-2.47;97.74;97546.63;5050412;28;20500;-75
2024/01/19 01:40:18;;;;;;;19.90;12.40;;;-1.20;89.00;;;-2.38;97.44;97548.41;5044958;28;20457;-74
2024/01/19 01:42:46;;;;;;;21.33;13.40;;;-1.10;89.30;;;-2.47;97.89;97560.69;5063941;28;21063;-74
2024/01/19 01:45:13;;;;;;;21.43;14.00;;;-1.20;89.00;;;-2.59;98.03;97559.19;5061810;28;20466;-72
2024/01/19 01:47:41;;;;;;;22.60;13.60;;;-1.20;88.60;;;-2.55;98.77;97563.22;5045547;28;20449;-73
2024/01/19 01:50:10;;;;;;;27.27;14.80;;;-1.30;89.40;;;-2.80;99.17;97562.03;5041889;28;20455;-75
2024/01/19 01:52:41;;;;;;;25.80;13.73;;;-1.40;88.80;;;-2.85;99.55;97549.22;5043017;28;20466;-73
2024/01/19 01:55:10;;;;;;;21.20;14.30;;;-1.40;89.90;;;-2.92;100.00;97575.41;5041283;28;20561;-74
2024/01/19 01:57:38;;;;;;;26.10;14.57;;;-1.50;89.90;;;-2.87;100.00;97575.81;5046103;28;20462;-71
2024/01/19 02:00:08;;;;;;;26.40;13.57;;;-1.60;90.30;;;-3.03;100.00;97572.91;5045988;28;20475;-70
2024/01/19 02:02:36;;;;;;;24.97;15.07;;;-1.60;90.40;;;-2.89;100.00;97580.41;5043592;28;20709;-71
2024/01/19 02:05:06;;;;;;;24.10;16.43;;;-1.60;91.00;;;-3.05;100.00;97574.84;5041946;28;20457;-71
2024/01/19 02:07:35;;;;;;;24.17;15.60;;;-1.70;90.80;;;-3.03;100.00;97588.75;5063105;28;20522;-72
2024/01/19 02:10:06;;;;;;;24.50;14.90;;;-1.70;90.90;;;-3.04;100.00;97581.81;5052544;28;20452;-75
2024/01/19 02:12:33;;;;;;;24.47;14.40;;;-1.70;91.30;;;-3.08;100.00;97591.00;5048337;28;20450;-74
2024/01/19 02:15:01;;;;;;;22.93;14.73;;;-1.70;91.30;;;-3.56;100.00;97525.59;5049142;28;20487;-74
2024/01/19 02:17:29;;;;;;;24.83;13.90;;;-1.70;91.50;;;-3.05;100.00;97598.66;5044131;28;20457;-75
2024/01/19 02:19:56;;;;;;;30.43;15.80;;;-1.70;91.70;;;-3.10;100.00;97566.53;5045001;28;20523;-73
2024/01/19 02:22:24;;;;;;;23.40;14.33;;;-1.60;91.90;;;-3.08;100.00;97581.25;5045429;28;20478;-75
2024/01/19 02:24:54;;;;;;;25.00;16.03;;;-1.70;91.40;;;-3.07;100.00;97592.66;5044632;28;20455;-74
2024/01/19 02:27:22;;;;;;;21.43;14.20;;;-1.70;91.40;;;-3.07;100.00;97596.13;5057153;28;20443;-75
2024/01/19 02:29:50;;;;;;;20.77;14.30;;;-1.70;91.60;;;-3.14;100.00;97603.78;5045615;28;20460;-74
2024/01/19 02:32:18;;;;;;;22.47;15.20;;;-1.70;91.60;;;-3.13;100.00;97609.91;5062054;28;20450;-75
2024/01/19 02:34:46;;;;;;;25.90;14.67;;;-1.80;91.90;;;-3.02;100.00;97616.88;5050759;28;20515;-75
2024/01/19 02:37:14;;;;;;;22.50;15.27;;;-1.70;92.50;;;-3.17;100.00;97619.91;5030132;28;20558;-70
2024/01/19 02:39:42;;;;;;;23.70;14.70;;;-1.80;92.10;;;-3.25;100.00;97618.94;5037633;28;20544;-74
2024/01/19 02:42:10;;;;;;;23.53;14.83;;;-1.90;92.10;;;-3.43;100.00;97596.66;5029157;28;20459;-74
2024/01/19 02:44:38;;;;;;;23.77;14.50;;;-1.90;92.40;;;-3.35;100.00;97629.50;5044531;28;20455;-73
2024/01/19 02:47:05;;;;;;;20.60;13.80;;;-2.00;92.40;;;-3.53;100.00;97624.88;5034857;28;21174;-75
2024/01/19 02:49:32;;;;;;;25.90;15.60;;;-2.10;92.30;;;-3.46;100.00;97628.63;5062879;28;20530;-72
2024/01/19 02:52:00;;;;;;;22.30;14.27;;;-2.10;92.90;;;-3.65;100.00;97631.25;5032135;28;20833;-74
2024/01/19 02:54:27;;;;;;;23.70;13.80;;;-2.20;92.60;;;-3.72;100.00;97626.47;5031293;28;20457;-74
2024/01/19 02:56:55;;;;;;;23.90;14.37;;;-2.30;92.90;;;-3.73;100.00;97640.66;5031726;28;20455;-74
2024/01/19 02:59:24;;;;;;;27.27;15.90;;;-2.40;93.30;;;-3.64;100.00;97632.91;5036811;28;20800;-74
2024/01/19 03:01:53;;;;;;;24.30;14.50;;;-2.30;94.10;;;-3.70;100.00;97640.41;5032370;28;20844;-74
2024/01/19 03:04:21;;;;;;;22.00;14.30;;;-2.30;94.10;;;-3.57;100.00;97644.59;5048836;28;20465;-73
2024/01/19 03:06:48;;;;;;;31.60;15.50;;;-2.30;94.80;;;-3.77;100.00;97633.97;5028999;28;20459;-74
2024/01/19 03:09:15;;;;;;;30.30;15.93;;;-2.30;95.00;;;-3.53;100.00;97661.88;5036750;28;20453;-70
2024/01/19 03:11:45;;;;;;;28.97;16.20;;;-2.20;95.60;;;-3.54;100.00;97656.69;5054608;28;20543;-73
2024/01/19 03:14:12;;;;;;;26.63;15.80;;;-2.20;96.00;;;-3.55;100.00;97666.44;5054652;28;20808;-72
2024/01/19 03:16:44;;;;;;;25.43;15.20;;;-2.20;95.90;;;-3.45;100.00;97659.38;5031535;28;20456;-72
2024/01/19 03:19:12;;;;;;;27.53;17.23;;;-2.00;96.10;;;-3.35;100.00;97671.78;5040855;28;20532;-74
2024/01/19 03:21:39;;;;;;;24.47;15.97;;;-2.00;96.20;;;-3.09;100.00;97673.91;5041557;28;20466;-70
2024/01/19 03:24:07;;;;;;;26.27;17.40;;;-1.90;96.20;;;-3.13;100.00;97674.16;5037842;28;20482;-72
2024/01/19 03:26:34;;;;;;;31.47;16.80;;;-1.70;95.90;;;-3.00;100.00;97673.91;5053511;28;20442;-75
2024/01/19 03:29:01;;;;;;;24.93;16.17;;;-1.70;95.40;;;-3.07;100.00;97667.50;5032769;28;20521;-72
2024/01/19 03:31:30;;;;;;;23.53;15.13;;;-1.70;94.40;;;-3.05;100.00;97664.72;5042807;28;20556;-74
2024/01/19 03:34:00;;;;;;;31.03;17.57;;;-1.60;94.00;;;-3.03;100.00;97676.00;5038652;28;20451;-74
2024/01/19 03:36:28;;;;;;;26.10;16.03;;;-1.60;93.30;;;-2.92;100.00;97681.16;5031923;28;20458;-72
2024/01/19 03:38:55;;;;;;;27.37;17.00;;;-1.60;93.00;;;-2.89;100.00;97686.16;5034208;28;20457;-72
2024/01/19 03:41:22;;;;;;;29.47;17.73;;;-1.50;92.80;;;-3.00;100.00;97681.84;5032933;28;20507;-73
2024/01/19 03:43:50;;;;;;;24.47;16.00;;;-1.60;92.30;;;-2.95;100.00;97686.72;5045204;28;20489;-73
2024/01/19 03:46:17;;;;;;;25.83;17.27;;;-1.60;92.30;;;-2.87;100.00;97683.41;5039643;28;20470;-70
2024/01/19 03:48:47;;;;;;;33.40;18.80;;;-1.60;92.20;;;-2.93;100.00;97690.06;5032369;28;20486;-74
2024/01/19 03:51:16;;;;;;;30.93;17.87;;;-1.50;92.00;;;-2.82;100.00;97685.59;5044504;28;20204;-74
2024/01/19 03:53:45;;;;;;;24.53;17.53;;;-1.50;92.00;;;-2.90;100.00;97684.50;5039055;28;20441;-74
2024/01/19 03:56:13;;;;;;;31.20;19.63;;;-1.50;91.80;;;-3.03;100.00;97689.22;5033728;28;20529;-74
2024/01/19 03:58:40;;;;;;;30.90;20.40;;;-1.60;91.30;;;-3.02;100.00;97698.81;5042288;28;20828;-70
2024/01/19 04:01:08;;;;;;;30.07;18.80;;;-1.60;91.50;;;-2.99;100.00;97698.53;5039656;28;20449;-74
2024/01/19 04:03:35;;;;;;;36.97;20.17;;;-1.60;91.50;;;-2.92;100.00;97696.19;5042533;28;20607;-73
2024/01/19 04:06:03;;;;;;;30.80;20.40;;;-1.60;91.60;;;-2.97;100.00;97693.94;5033113;28;21009;-73
2024/01/19 04:08:37;;;;;;;35.90;20.37;;;-1.50;91.60;;;-2.93;100.00;97707.72;5032490;28;20490;-73
2024/01/19 04:11:04;;;;;;;37.10;19.30;;;-1.60;91.40;;;-2.94;100.00;97706.91;5048584;28;20468;-71
2024/01/19 04:13:31;;;;;;;31.43;20.90;;;-1.60;91.40;;;-2.80;100.00;97707.47;5047078;28;20437;-73
2024/01/19 04:15:59;;;;;;;34.03;20.87;;;-1.50;91.70;;;-2.89;100.00;97696.75;5040688;28;20462;-73
2024/01/19 04:18:26;;;;;;;38.07;20.27;;;-1.50;91.60;;;-2.81;100.00;97704.00;5054214;28;20467;-72
2024/01/19 04:20:55;;;;;;;33.63;20.47;;;-1.50;91.40;;;-2.75;100.00;97703.44;5048042;28;20473;-73
2024/01/19 04:23:22;;;;;;;34.63;21.20;;;-1.40;91.50;;;-2.86;100.00;97688.53;5044689;28;20509;-72
2024/01/19 04:25:51;;;;;;;35.37;23.63;;;-1.40;91.40;;;-2.51;99.93;97704.81;5054189;28;21020;-72
2024/01/19 04:28:18;;;;;;;40.17;22.97;;;-1.30;91.50;;;-2.49;99.92;97713.47;5044253;28;20515;-74
2024/01/19 04:30:46;;;;;;;33.90;21.90;;;-1.20;91.00;;;-2.40;99.86;97718.91;5040726;28;20459;-73
2024/01/19 04:33:13;;;;;;;32.87;21.50;;;-1.20;90.90;;;-2.23;99.35;97722.63;5032974;28;21183;-73
2024/01/19 04:35:41;;;;;;;40.60;22.13;;;-1.00;90.80;;;-2.51;99.44;97728.63;5046757;28;21029;-73
2024/01/19 04:38:08;;;;;;;36.73;23.00;;;-1.10;90.30;;;-2.67;100.00;97726.53;5036007;28;20856;-73
2024/01/19 04:40:36;;;;;;;34.27;22.53;;;-1.30;90.10;;;-2.67;100.00;97725.72;5018307;28;20468;-74
2024/01/19 04:43:05;;;;;;;33.47;22.50;;;-1.30;90.40;;;-3.36;100.00;97614.63;5031134;28;20877;-73
2024/01/19 04:45:33;;;;;;;33.30;22.97;;;-1.30;90.50;;;-2.52;100.00;97737.56;5049602;28;20468;-75
2024/01/19 04:48:02;;;;;;;38.00;23.70;;;-1.20;91.00;;;-2.61;100.00;97735.72;5033403;28;20455;-73
2024/01/19 04:50:29;;;;;;;40.30;24.33;;;-1.30;90.70;;;-2.51;99.71;97743.66;5042317;28;20451;-74
2024/01/19 04:52:57;;;;;;;43.30;24.10;;;-1.20;90.90;;;-2.56;100.00;97734.34;5036258;28;20492;-73
2024/01/19 04:55:24;;;;;;;38.83;23.27;;;-1.20;90.80;;;-2.61;99.90;97747.16;5034453;28;20455;-75
2024/01/19 04:57:52;;;;;;;39.80;23.27;;;-1.20;90.70;;;-2.49;99.95;97750.50;5041524;28;20448;-73
2024/01/19 05:00:22;;;;;;;43.43;25.70;;;-1.20;90.80;;;-2.59;100.00;97757.59;5054600;28;20461;-75
2024/01/19 05:02:50;;;;;;;40.53;23.27;;;-1.20;90.50;;;-2.48;100.00;97740.75;5053546;28;20470;-75
2024/01/19 05:05:18;;;;;;;36.23;22.37;;;-1.20;90.70;;;-2.39;99.73;97753.16;5047062;28;20465;-72
2024/01/19 05:07:45;;;;;;;41.70;24.00;;;-1.10;90.80;;;-2.72;100.00;97757.88;5056183;28;20458;-74
2024/01/19 05:10:13;;;;;;;41.73;24.73;;;-1.30;90.10;;;-2.68;100.00;97756.59;5042916;28;20456;-75
2024/01/19 05:12:40;;;;;;;38.87;23.40;;;-1.30;90.50;;;-2.38;100.00;97741.56;5042804;28;20628;-68
2024/01/19 05:15:11;;;;;;;38.90;21.97;;;-1.10;91.10;;;-2.43;98.55;97746.47;5049826;28;20461;-73
2024/01/19 05:17:40;;;;;;;39.47;24.23;;;-1.10;90.50;;;-2.59;99.23;97750.50;5057605;28;21047;-74
2024/01/19 05:20:08;;;;;;;42.10;24.30;;;-1.20;89.90;;;-2.64;99.63;97763.31;5053605;28;20460;-72
2024/01/19 05:22:35;;;;;;;42.67;25.90;;;-1.30;90.10;;;-2.58;99.71;97757.47;5052765;28;20459;-73
2024/01/19 05:25:03;;;;;;;43.80;22.83;;;-1.20;90.20;;;-2.71;99.47;97773.59;5044781;28;21158;-72
2024/01/19 05:27:30;;;;;;;41.20;24.50;;;-1.30;90.20;;;-2.70;100.00;97777.06;5047198;28;20442;-73
2024/01/19 05:29:58;;;;;;;39.40;25.43;;;-1.30;90.30;;;-2.74;100.00;97778.31;5025269;28;20454;-72
2024/01/19 05:32:25;;;;;;;37.70;24.23;;;-1.30;90.40;;;-2.56;100.00;97779.31;5044298;28;20536;-74
2024/01/19 05:34:54;;;;;;;44.83;24.73;;;-1.30;90.90;;;-2.49;100.00;97789.38;5046759;28;20456;-72
2024/01/19 05:37:21;;;;;;;44.47;24.23;;;-1.20;90.90;;;-2.51;99.90;97780.72;5040274;28;20458;-73
2024/01/19 05:39:49;;;;;;;44.80;25.97;;;-1.20;90.80;;;-2.52;100.00;97792.25;5045746;28;20988;-77
2024/01/19 05:42:16;;;;;;;41.03;23.97;;;-1.20;90.60;;;-2.49;99.65;97802.59;5043643;28;20552;-73
2024/01/19 05:44:45;;;;;;;39.03;24.53;;;-1.20;90.60;;;-2.49;99.66;97802.59;5044351;28;20610;-76
2024/01/19 05:47:12;;;;;;;41.87;24.23;;;-1.20;90.30;;;-2.47;98.75;97805.94;5066525;28;20473;-71
2024/01/19 05:49:41;;;;;;;42.60;25.90;;;-1.10;89.70;;;-2.65;99.43;97806.63;5054773;28;20988;-75
2024/01/19 05:52:10;;;;;;;47.00;25.10;;;-1.20;89.00;;;-2.55;98.97;97819.84;5049120;28;20466;-78
2024/01/19 05:54:37;;;;;;;43.83;27.50;;;-1.20;89.70;;;-2.64;99.63;97815.38;5056388;28;20878;-78
2024/01/19 05:57:05;;;;;;;50.37;26.77;;;-1.20;90.00;;;-2.53;99.88;97811.75;5051118;28;20461;-77
2024/01/19 05:59:48;;;;;;;39.95;24.85;;;-1.20;90.30;;;-2.56;98.65;97816.34;4604894;27;16287237;-78
2024/01/19 06:02:21;;;;;;;48.20;25.90;;;-1.20;90.10;;;-2.45;99.90;97835.75;5151918;27;20536;-72
2024/01/19 06:04:49;;;;;;;43.10;26.50;;;-1.20;90.20;;;-2.73;98.70;97832.91;5170516;27;20749;-74
2024/01/19 06:07:16;;;;;;;43.47;25.60;;;-1.20;89.80;;;-2.77;98.95;97847.38;5158435;27;20918;-75
2024/01/19 06:09:44;;;;;;;40.53;23.93;;;-1.40;88.70;;;-2.73;98.97;97854.91;5149374;27;20472;-76
2024/01/19 06:12:11;;;;;;;44.50;24.00;;;-1.30;89.40;;;-2.79;98.85;97854.59;5139759;27;20445;-74
2024/01/19 06:14:38;;;;;;;39.73;24.00;;;-1.40;89.00;;;-2.89;98.04;97862.47;5152240;27;20444;-74
2024/01/19 06:22:51;;;;;;;42.37;23.97;;;-1.40;88.60;;;-2.79;99.17;97866.00;5161092;27;20452;-74
2024/01/19 06:25:19;;;;;;;45.27;26.47;;;-1.40;88.90;;;-2.80;99.16;97869.63;5163122;27;21053;-77
2024/01/19 06:27:46;;;;;;;43.70;26.50;;;-1.40;88.90;;;-2.76;98.94;97872.84;5141873;27;20447;-75
2024/01/19 06:30:15;;;;;;;50.80;26.03;;;-1.40;89.20;;;-2.59;97.96;97877.50;5167212;27;20456;-72
2024/01/19 06:32:43;;;;;;;45.07;26.93;;;-1.30;89.60;;;-2.70;97.76;97885.53;5166022;27;20444;-74
2024/01/19 06:35:11;;;;;;;38.23;24.00;;;-1.30;88.50;;;-2.86;97.09;97865.72;5150774;27;20572;-76
2024/01/19 06:37:39;;;;;;;37.87;21.37;;;-1.40;87.60;;;-2.83;96.88;97890.22;5162986;27;20456;-77
2024/01/19 06:40:10;;;;;;;37.83;22.07;;;-1.40;86.90;;;-2.81;97.00;97896.19;5143583;27;21136;-73
2024/01/19 06:42:37;;;;;;;39.47;24.40;;;-1.40;86.80;;;-2.33;100.00;97903.47;5155722;27;20964;-71
2024/01/19 06:45:06;;;;;;;39.10;23.50;;;-1.10;90.50;;;-2.09;99.87;97899.56;5150369;27;20484;-70
2024/01/19 06:47:34;;;;;;;39.57;22.13;;;-0.80;92.30;;;-2.37;95.51;97912.63;5136597;27;20448;-70
2024/01/19 06:50:03;;;;;;;30.80;20.30;;;-0.90;86.60;;;-2.44;95.71;97925.56;5133899;27;20442;-72
2024/01/19 06:52:31;;;;;;;34.60;22.20;;;-1.00;86.10;;;-2.53;95.75;97922.88;5141676;27;20563;-73
2024/01/19 06:55:01;;;;;;;39.60;24.53;;;-1.20;84.70;;;-2.52;95.78;97927.19;5155461;27;20459;-69
2024/01/19 06:57:29;;;;;;;41.23;24.30;;;-1.10;85.40;;;-2.53;95.25;97933.47;5142111;27;20462;-69
2024/01/19 06:59:56;;;;;;;35.73;21.40;;;-1.10;85.60;;;-2.65;94.89;97941.53;5158041;27;20528;-69
2024/01/19 07:02:24;;;;;;;38.00;23.13;;;-1.20;84.70;;;-2.56;95.40;97940.72;5126119;27;20572;-68
2024/01/19 07:04:51;;;;;;;35.00;21.37;;;-1.20;85.30;;;-2.63;94.80;97939.59;5138193;27;20539;-76
2024/01/19 07:07:20;;;;;;;34.57;22.70;;;-1.20;85.00;;;-2.63;95.09;97942.22;5158830;27;20960;-73
2024/01/19 07:09:47;;;;;;;36.95;22.40;;;-1.30;84.60;;;-2.94;95.30;97886.72;5159640;27;20443;-74
2024/01/19 07:12:16;;;;;;;38.97;22.47;;;-1.20;85.40;;;-2.66;95.19;97958.34;5134867;27;20197;-76
2024/01/19 07:14:43;;;;;;;35.50;19.70;;;-1.30;84.90;;;-2.69;95.04;97948.03;5122913;27;20447;-78
2024/01/19 07:17:11;;;;;;;37.77;23.90;;;-1.30;84.80;;;-2.71;94.57;97963.19;5136530;27;20933;-76
2024/01/19 07:19:38;;;;;;;36.33;21.37;;;-1.30;84.40;;;-2.75;93.88;97967.91;5123469;27;20484;-78
2024/01/19 07:22:05;;;;;;;40.33;23.07;;;-1.30;83.80;;;-2.61;94.01;97979.97;5139374;27;20461;-70
2024/01/19 07:24:35;;;;;;;43.87;24.40;;;-1.30;84.30;;;-2.62;93.81;97983.59;5138250;27;20464;-72
2024/01/19 07:27:03;;;;;;;36.30;21.43;;;-1.20;84.00;;;-3.09;94.04;97906.53;5147054;27;20454;-71
2024/01/19 07:29:31;;;;;;;36.13;20.63;;;-1.20;84.10;;;-2.51;94.50;97995.03;5130687;27;20536;-72
2024/01/19 07:31:59;;;;;;;40.63;24.27;;;-1.20;84.40;;;-2.56;94.12;97996.28;5115973;27;20441;-72
2024/01/19 07:34:27;;;;;;;35.67;22.30;;;-1.20;84.50;;;-2.49;94.33;97998.41;5136704;27;20454;-71
2024/01/19 07:36:54;;;;;;;35.70;24.10;;;-1.20;84.40;;;-2.54;93.72;98000.59;5120108;27;20482;-72
2024/01/19 07:39:26;;;;;;;25.03;17.80;;;-1.20;84.00;;;-2.66;92.50;98000.66;5133867;27;20472;-71
2024/01/19 07:41:54;;;;;;;35.77;20.97;;;-1.20;82.70;;;-2.74;92.76;98011.91;5144010;27;20445;-71
2024/01/19 07:44:24;;;;;;;38.43;21.50;;;-1.30;82.30;;;-2.60;92.56;98005.44;5123536;27;20957;-72
2024/01/19 07:46:51;;;;;;;28.10;17.53;;;-1.20;82.50;;;-2.60;90.07;98016.03;5118407;27;20538;-71
2024/01/19 07:49:21;;;;;;;30.03;18.07;;;-1.20;81.30;;;-2.62;89.55;98027.69;5141151;27;20464;-71
2024/01/19 07:51:49;;;;;;;30.47;18.73;;;-1.20;80.30;;;-2.67;89.74;98036.03;5141203;27;20465;-70
2024/01/19 07:54:20;;;;;;;31.77;16.80;;;-1.30;80.10;;;-2.65;89.39;98047.34;5139301;27;20478;-71
2024/01/19 07:56:48;;;;;;;31.83;18.83;;;-1.30;80.10;;;-2.63;89.80;98041.91;5123654;27;20453;-72
2024/01/19 07:59:17;;;;;;;34.70;18.70;;;-1.30;80.10;;;-2.57;89.46;98060.75;5142861;27;20488;-71
2024/01/19 08:01:44;;;;;;;31.73;18.47;;;-1.20;80.50;;;-2.50;90.48;98061.06;5144147;27;20453;-73
2024/01/19 08:04:12;;;;;;;33.70;20.70;;;-1.20;80.70;;;-2.47;90.28;98059.97;5120991;27;20457;-72
2024/01/19 08:06:39;;;;;;;38.70;21.47;;;-1.10;81.00;;;-2.49;90.81;98053.97;5124427;27;20464;-74
2024/01/19 08:09:11;;;;;;;40.60;22.47;;;-1.10;80.90;;;-2.56;90.79;98062.41;5144706;27;21096;-72
2024/01/19 08:11:39;;;;;;;42.50;23.33;;;-1.10;81.00;;;-2.50;90.90;98079.56;5143240;27;20454;-72
2024/01/19 08:14:06;;;;;;;32.47;20.50;;;-1.10;81.40;;;-2.56;92.02;98073.00;5135345;27;20472;-73
2024/01/19 08:16:34;;;;;;;39.50;21.60;;;-1.10;81.50;;;-2.58;91.75;98084.66;5137037;27;20489;-72
2024/01/19 08:19:02;;;;;;;39.77;19.53;;;-1.20;81.60;;;-2.60;91.01;98076.88;5141401;27;20480;-71
2024/01/19 08:21:30;;;;;;;37.43;21.43;;;-1.20;81.70;;;-2.48;91.10;98090.03;5136831;27;20454;-72
2024/01/19 08:23:58;;;;;;;33.23;20.90;;;-1.10;81.40;;;-2.34;90.35;98084.41;5145802;27;20454;-71
2024/01/19 08:26:25;;;;;;;32.60;19.20;;;-1.00;81.50;;;-2.32;89.36;98097.50;5143958;27;20540;-71
2024/01/19 08:28:53;;;;;;;35.60;21.87;;;-0.90;80.90;;;-2.40;89.99;98106.09;5115956;27;20560;-72
2024/01/19 08:31:20;;;;;;;31.73;19.70;;;-1.00;80.50;;;-2.23;89.01;98103.81;5134179;27;20492;-70
2024/01/19 08:33:50;;;;;;;30.60;18.60;;;-0.90;80.60;;;-2.33;88.19;98104.63;5123322;27;20587;-71
2024/01/19 08:36:23;;;;;;;34.90;22.10;;;-0.90;80.10;;;-2.30;88.30;98109.63;5122657;27;20513;-71
2024/01/19 08:38:53;;;;;;;28.67;19.17;;;-0.90;80.10;;;-2.14;87.93;98108.31;5118758;27;20501;-72
2024/01/19 08:41:23;;;;;;;27.97;17.03;;;-0.80;79.80;;;-2.20;86.37;98107.03;5123847;27;20473;-72
2024/01/19 08:43:50;;;;;;;27.17;17.37;;;-0.80;78.90;;;-2.15;86.12;98114.59;5117878;27;20980;-72
2024/01/19 08:46:19;;;;;;;30.70;17.80;;;-0.80;78.60;;;-2.08;86.40;98118.38;5120041;27;21123;-77
2024/01/19 08:48:51;;;;;;;29.33;16.30;;;-0.70;78.40;;;-2.07;85.67;98120.03;5128110;27;20444;-71
2024/01/19 08:51:28;;;;;;;26.27;17.10;;;-0.70;78.30;;;-2.02;85.27;98123.16;5145472;27;20445;-71
2024/01/19 08:53:55;;;;;;;29.87;19.50;;;-0.60;77.90;;;-2.39;85.02;98060.13;5137010;27;20493;-71
2024/01/19 08:56:23;;;;;;;30.40;17.77;;;-0.60;78.00;;;-2.03;85.37;98137.38;5126470;27;20449;-71
2024/01/19 08:58:51;;;;;;;27.17;16.50;;;-0.70;77.60;;;-2.06;85.25;98134.97;5105952;27;20882;-71
2024/01/19 09:01:18;;;;;;;24.13;16.77;;;-0.70;77.60;;;-2.13;85.04;98133.81;5140729;27;20466;-70
2024/01/19 09:03:48;;;;;;;30.97;18.90;;;-0.70;77.20;;;-2.08;85.37;98131.59;5134995;27;20445;-71
2024/01/19 09:06:15;;;;;;;28.37;18.20;;;-0.70;77.60;;;-1.94;85.19;98140.19;5139450;27;20477;-72
2024/01/19 09:08:43;;;;;;;27.80;16.83;;;-0.60;77.70;;;-1.80;84.69;98126.56;5118661;27;20450;-71
2024/01/19 09:11:11;;;;;;;29.13;15.60;;;-0.50;77.70;;;-1.87;83.54;98130.75;5137133;27;20457;-73
2024/01/19 09:13:39;;;;;;;25.63;15.73;;;-0.50;77.20;;;-1.74;82.75;98141.94;5137714;27;20510;-71
2024/01/19 09:16:07;;;;;;;27.57;17.60;;;-0.40;76.90;;;-1.75;82.70;98144.72;5135804;27;20534;-70
2024/01/19 09:18:36;;;;;;;30.70;19.87;;;-0.40;76.60;;;-1.75;83.17;98134.13;5117912;27;20990;-72
2024/01/19 09:21:05;;;;;;;28.67;16.43;;;-0.40;76.80;;;-1.72;83.59;98149.75;5124347;27;20490;-72
2024/01/19 09:23:32;;;;;;;23.17;15.17;;;-0.40;76.80;;;-1.78;81.37;98161.72;5117319;27;20812;-73
2024/01/19 09:25:59;;;;;;;23.03;16.17;;;-0.40;75.90;;;-1.82;82.38;98176.19;5122309;27;20453;-72
2024/01/19 09:28:27;;;;;;;27.90;16.67;;;-0.40;76.00;;;-1.68;83.70;98182.13;5142218;27;20464;-70
2024/01/19 09:30:54;;;;;;;27.00;16.87;;;-0.40;76.70;;;-1.74;83.15;98194.09;5145551;27;20472;-72
2024/01/19 09:33:21;;;;;;;29.57;18.10;;;-0.40;76.50;;;-1.78;83.16;98201.44;5137193;27;21275;-71
2024/01/19 09:35:48;;;;;;;29.00;18.67;;;-0.50;76.60;;;-1.79;82.61;98213.03;5125419;27;20474;-72
2024/01/19 09:38:17;;;;;;;30.43;19.30;;;-0.40;76.60;;;-1.64;83.90;98207.38;5140078;27;20458;-70
2024/01/19 09:40:45;;;;;;;27.03;18.17;;;-0.40;77.00;;;-1.52;83.22;98224.88;5132010;27;20980;-70
2024/01/19 09:43:13;;;;;;;28.40;18.63;;;-0.30;76.80;;;-1.37;81.99;98224.50;5141332;27;20453;-73
2024/01/19 09:45:42;;;;;;;27.03;18.53;;;-0.10;76.50;;;-1.41;81.63;98237.19;5143263;27;21247;-72
2024/01/19 09:48:23;;;;;;;25.77;16.90;;;-0.10;76.10;;;-1.61;82.21;98233.59;5119138;27;20476;-71
2024/01/19 09:50:55;;;;;;;26.63;17.20;;;-0.20;76.00;;;-1.93;81.01;98145.34;5123122;27;20860;-73
2024/01/19 09:53:32;;;;;;;24.10;15.33;;;-0.10;76.00;;;-1.52;79.68;98239.91;5140086;27;20220;-71
2024/01/19 09:56:00;;;;;;;26.30;16.77;;;-0.20;74.90;;;-1.41;79.44;98249.59;5117900;27;21034;-69
2024/01/19 09:58:28;;;;;;;24.40;16.30;;;-0.10;74.80;;;-1.27;78.87;98237.78;5140600;27;20469;-69
2024/01/19 10:00:55;;;;;;;27.83;16.30;;;0.10;74.60;;;-1.40;77.60;98249.44;5135131;27;20486;-70
2024/01/19 10:03:24;;;;;;;23.17;15.17;;;0.00;73.50;;;-1.47;78.50;98254.44;5132418;27;21020;-69
2024/01/19 10:05:52;;;;;;;20.30;13.00;;;-0.10;73.60;;;-1.54;78.27;98261.25;5118348;27;21048;-69
2024/01/19 10:08:20;;;;;;;23.93;14.17;;;-0.10;73.50;;;-1.47;78.99;98259.75;5135342;27;20454;-69
2024/01/19 10:10:53;;;;;;;23.50;15.50;;;-0.10;74.00;;;-1.57;79.05;98270.31;5131569;27;20453;-69
2024/01/19 10:13:20;;;;;;;23.63;14.80;;;-0.20;73.60;;;-1.59;78.48;98266.13;5126810;27;20454;-68
2024/01/19 10:15:47;;;;;;;23.43;15.63;;;-0.20;73.30;;;-1.47;78.77;98269.53;5135334;27;20449;-70